Grant Road Addition, Washington
Current Conditions -  °F | °C
As of 5:55 PM on Friday 28 Nov 2014 (Local Time) from KEAT Reporting Station
Scattered Clouds Scattered Clouds  
Wind Chill: 50°   Ceiling: Unl
Heat Index: 50°   Visibility: NA
Dew Point: 38°   Wind: 15mph
Humidity: 63%   Direction: 310°NW
Pressure: 29.24"   Gusts: 18mph
Location:  47.3635°N, 120.348°W
Report Text: KEAT 290155Z AUTO 31013G16KT SCT060 10/03 A2924 RMK AO2 RAE0057 SLP904 P0000 T01000033
Loading
Personal Weather Stations






























Interactive Weather Map New forecast layout! Learn more

10-Day Weather Forecast

Advertisements
Track Severe Weather on mobile